createdAt,value
2019-03-13T00:02:59.895Z,3.14
2019-03-13T00:08:54.897Z,4.98
2019-03-13T00:14:49.906Z,3.79
2019-03-13T00:20:44.961Z,3.73
2019-03-13T00:26:39.916Z,4.19
2019-03-13T00:32:34.930Z,3.4
2019-03-13T00:38:29.942Z,3.43
2019-03-13T00:44:24.918Z,5.35
2019-03-13T00:50:19.926Z,4.72
2019-03-13T00:56:14.934Z,4.23
2019-03-13T01:02:09.947Z,3.7
2019-03-13T01:08:04.950Z,4.26
2019-03-13T01:13:59.950Z,3.33
2019-03-13T01:19:55.033Z,3.64
2019-03-13T01:25:49.932Z,4.42
2019-03-13T01:31:44.973Z,4.67
2019-03-13T01:37:39.972Z,3.75
2019-03-13T01:43:34.974Z,3.98
2019-03-13T01:49:30.003Z,4.6
2019-03-13T01:55:25.067Z,3.84
2019-03-13T02:01:20.012Z,3.4
2019-03-13T02:07:14.993Z,3.93
2019-03-13T02:13:09.979Z,4.02
2019-03-13T02:19:04.996Z,3.84
2019-03-13T02:24:59.996Z,4.47
2019-03-13T02:30:54.980Z,4.17
2019-03-13T02:36:50.024Z,4.33
2019-03-13T02:42:45.050Z,4.4
2019-03-13T02:48:39.986Z,4.33
2019-03-13T02:54:34.993Z,3.67
2019-03-13T03:00:29.982Z,4.11
2019-03-13T03:06:24.978Z,3.52
2019-03-13T03:12:19.980Z,2.84
2019-03-13T03:18:14.991Z,3.31
2019-03-13T03:24:10.032Z,2.51
2019-03-13T03:30:05.060Z,2.81
2019-03-13T03:35:59.991Z,2.76
2019-03-13T03:41:55.054Z,4.83
2019-03-13T03:47:50.010Z,2.89
2019-03-13T03:53:45.044Z,2.65
2019-03-13T03:59:40.048Z,2.7
2019-03-13T04:05:35.024Z,2.98
2019-03-13T04:11:30.021Z,3.42
2019-03-13T04:17:25.054Z,3.92
2019-03-13T04:23:20.031Z,3.85
2019-03-13T04:29:15.035Z,4.06
2019-03-13T04:35:10.042Z,3.28
2019-03-13T04:41:05.054Z,3.09
2019-03-13T04:47:00.074Z,2.37
2019-03-13T04:52:55.037Z,3.68
2019-03-13T04:58:50.045Z,4.85
2019-03-13T05:04:45.081Z,4.49
2019-03-13T05:10:40.052Z,4.89
2019-03-13T05:16:35.103Z,4.62
2019-03-13T05:22:30.066Z,5.4
2019-03-13T05:28:25.075Z,5.71
2019-03-13T05:34:20.193Z,5.37
2019-03-13T05:40:15.073Z,5.07
2019-03-13T05:46:10.080Z,4.92
2019-03-13T05:52:05.093Z,5.36
2019-03-13T05:58:00.085Z,6.66
2019-03-13T06:03:55.070Z,7.24
2019-03-13T06:09:50.106Z,7.23
2019-03-13T06:15:45.142Z,6.96
2019-03-13T06:21:40.098Z,7.37
2019-03-13T06:27:35.081Z,7.7
2019-03-13T06:33:30.113Z,8.04
2019-03-13T06:39:25.111Z,20.23
2019-03-13T06:45:23.113Z,10.96
2019-03-13T06:51:15.115Z,6.85
2019-03-13T06:57:10.121Z,8.81
2019-03-13T07:03:05.097Z,7.36
2019-03-13T07:09:00.126Z,6.31
2019-03-13T07:14:55.106Z,7.1
2019-03-13T07:20:50.126Z,6.78
2019-03-13T07:26:45.150Z,6.8
2019-03-13T07:32:40.158Z,6
2019-03-13T07:38:35.175Z,7.11
2019-03-13T07:44:30.130Z,10.11
2019-03-13T07:50:25.139Z,11.9
2019-03-13T07:56:20.152Z,8.36
2019-03-13T08:02:15.229Z,11.11
2019-03-13T08:08:10.141Z,13.3
2019-03-13T08:14:05.188Z,10.61
2019-03-13T08:20:00.142Z,10.04
2019-03-13T08:25:55.161Z,13.38
2019-03-13T08:31:50.156Z,11.66
2019-03-13T08:37:45.184Z,10.66
2019-03-13T08:43:40.188Z,10.63
2019-03-13T08:49:35.157Z,9.52
2019-03-13T08:55:30.217Z,8.01
2019-03-13T09:01:25.180Z,7.64
2019-03-13T09:07:20.184Z,6.37
2019-03-13T09:13:15.169Z,6.67
2019-03-13T09:19:10.178Z,7.4
2019-03-13T09:25:11.488Z,7.83
2019-03-13T09:31:00.179Z,7.95
2019-03-13T09:36:55.219Z,6.41
2019-03-13T09:42:50.197Z,6.61
2019-03-13T09:48:45.199Z,6.63
2019-03-13T09:54:40.207Z,6.21
2019-03-13T10:00:35.228Z,6.33
2019-03-13T10:06:30.223Z,7.5
2019-03-13T10:12:25.253Z,6.93
2019-03-13T10:18:20.234Z,9.71
2019-03-13T10:24:15.276Z,18.2
2019-03-13T10:30:10.249Z,17.29
2019-03-13T10:36:05.260Z,14.15
2019-03-13T10:42:00.233Z,17.85
2019-03-13T10:47:55.238Z,26.57
2019-03-13T10:53:50.275Z,25.11
2019-03-13T10:59:45.247Z,18.4
2019-03-13T11:05:40.262Z,22.03
2019-03-13T11:11:35.306Z,14.89
2019-03-13T11:17:30.259Z,15.23
2019-03-13T11:23:25.246Z,12.63
2019-03-13T11:29:20.270Z,9.98
2019-03-13T11:35:15.267Z,10.25
2019-03-13T11:41:10.256Z,11.65
2019-03-13T11:47:05.246Z,12.53
2019-03-13T11:53:00.258Z,12.87
2019-03-13T11:58:55.273Z,12.37
2019-03-13T12:04:50.279Z,10.67
2019-03-13T12:10:45.274Z,11.77
2019-03-13T12:16:40.340Z,14.92
2019-03-13T12:22:35.273Z,15
2019-03-13T12:28:30.292Z,17.4
2019-03-13T12:34:25.323Z,20.65
2019-03-13T12:40:20.293Z,15.17
2019-03-13T12:46:15.300Z,12.47
2019-03-13T12:52:10.304Z,8.43
2019-03-13T12:58:05.294Z,8.24
2019-03-13T13:04:00.308Z,7.92
2019-03-13T13:09:55.385Z,9
2019-03-13T13:15:50.306Z,8
2019-03-13T13:21:45.330Z,8.73
2019-03-13T13:27:40.294Z,10.17
2019-03-13T13:33:35.313Z,14.17
2019-03-13T13:39:30.332Z,13.12
2019-03-13T13:45:25.310Z,9.94
2019-03-13T13:51:20.320Z,10.84
2019-03-13T13:57:15.330Z,10.93
2019-03-13T14:03:10.334Z,8.22
2019-03-13T14:09:05.353Z,7.97
2019-03-13T14:15:00.484Z,7.9
2019-03-13T14:20:55.337Z,7.14
2019-03-13T14:26:50.377Z,10.98
2019-03-13T14:32:45.361Z,9.6
2019-03-13T14:38:40.363Z,8.54
2019-03-13T14:44:35.412Z,7.27
2019-03-13T14:50:30.343Z,6.92
2019-03-13T14:56:25.366Z,6.91
2019-03-13T15:02:20.396Z,7.84
2019-03-13T15:08:15.348Z,12.86
2019-03-13T15:14:10.369Z,11.54
2019-03-13T15:20:05.378Z,10.54
2019-03-13T15:26:00.365Z,9.82
2019-03-13T15:31:55.378Z,5.28
2019-03-13T15:37:50.501Z,3.24
2019-03-13T15:43:45.461Z,1.88
2019-03-13T15:49:40.424Z,1.89
2019-03-13T15:55:35.392Z,2.12
2019-03-13T16:01:30.402Z,2.84
2019-03-13T16:07:25.438Z,3.07
2019-03-13T16:13:20.430Z,2.95
2019-03-13T16:19:15.431Z,3.07
2019-03-13T16:25:10.436Z,5.04
2019-03-13T16:31:05.459Z,4.96
2019-03-13T16:37:00.401Z,6.41
2019-03-13T16:42:55.425Z,9.57
2019-03-13T16:48:50.507Z,6.64
2019-03-13T16:54:45.438Z,3.52
2019-03-13T17:00:40.438Z,9.05
2019-03-13T17:06:35.446Z,12.17
2019-03-13T17:12:30.436Z,12.5
2019-03-13T17:18:25.444Z,10.68
2019-03-13T17:24:20.450Z,9.63
2019-03-13T17:30:15.444Z,9.77
2019-03-13T17:36:10.473Z,13.36
2019-03-13T17:42:05.462Z,14.58
2019-03-13T17:48:00.475Z,11.96
2019-03-13T17:53:55.450Z,34.18
2019-03-13T17:59:50.467Z,16.67
2019-03-13T18:05:45.469Z,13.8
2019-03-13T18:11:40.488Z,11.47
2019-03-13T18:17:35.477Z,13.28
2019-03-13T18:23:30.467Z,13.76
2019-03-13T18:29:25.475Z,14.33
2019-03-13T18:35:20.485Z,15.02
2019-03-13T18:41:15.542Z,9.73
2019-03-13T18:47:10.530Z,9.41
2019-03-13T18:53:05.517Z,9.25
2019-03-13T18:59:00.473Z,10.01
2019-03-13T19:04:57.570Z,11.19
2019-03-13T19:10:50.526Z,13.1
2019-03-13T19:16:45.514Z,13.02
2019-03-13T19:22:40.514Z,8.54
2019-03-13T19:28:35.483Z,5.25
2019-03-13T19:34:30.509Z,8.84
2019-03-13T19:40:25.506Z,8.29
2019-03-13T19:46:20.524Z,10.13
2019-03-13T19:52:15.500Z,11.93
2019-03-13T19:58:10.523Z,8.22
2019-03-13T20:04:05.548Z,7.85
2019-03-13T20:10:00.518Z,12.42
2019-03-13T20:15:55.534Z,10.19
2019-03-13T20:21:50.573Z,7.58
2019-03-13T20:27:45.562Z,9.68
2019-03-13T20:33:40.561Z,10.54
2019-03-13T20:39:35.563Z,5.71
2019-03-13T20:45:30.581Z,7.49
2019-03-13T20:51:25.571Z,8.04
2019-03-13T20:57:20.566Z,10.24
2019-03-13T21:03:15.561Z,11.11
2019-03-13T21:09:10.568Z,12.5
2019-03-13T21:15:05.570Z,12.96
2019-03-13T21:21:00.579Z,10.26
2019-03-13T21:26:55.582Z,11.24
2019-03-13T21:32:50.592Z,8.76
2019-03-13T21:38:45.589Z,7.69
2019-03-13T21:44:40.578Z,7.77
2019-03-13T21:50:35.582Z,13
2019-03-13T21:56:30.628Z,8.3
2019-03-13T22:02:32.453Z,10.35
2019-03-13T22:08:20.594Z,10.57
2019-03-13T22:14:15.611Z,10.58
2019-03-13T22:20:11.493Z,10.23
2019-03-13T22:26:05.704Z,9.42
2019-03-13T22:32:00.588Z,8.06
2019-03-13T22:37:55.602Z,7.23
2019-03-13T22:43:50.603Z,7.09
2019-03-13T22:49:45.629Z,6.96
2019-03-13T22:55:41.096Z,7.32
2019-03-13T23:01:35.614Z,7.44
2019-03-13T23:07:32.372Z,14.08
2019-03-13T23:13:25.672Z,9.24
2019-03-13T23:19:20.716Z,9.99
2019-03-13T23:25:15.648Z,8.44
2019-03-13T23:31:10.676Z,10.17
2019-03-13T23:37:05.687Z,9.81
2019-03-13T23:43:00.638Z,9.65
2019-03-13T23:48:55.631Z,7.9
2019-03-13T23:54:50.640Z,8.32
